sensor_id;sensor_type;location;lat;lon;timestamp;P1;durP1;ratioP1;P2;durP2;ratioP2
37931;SDS011;23758;42.640;23.302;2022-10-16T00:01:45;2.90;;;2.70;;
37931;SDS011;23758;42.640;23.302;2022-10-16T00:04:11;2.80;;;2.60;;
37931;SDS011;23758;42.640;23.302;2022-10-16T00:06:36;2.70;;;2.50;;
37931;SDS011;23758;42.640;23.302;2022-10-16T00:09:02;2.90;;;2.70;;
37931;SDS011;23758;42.640;23.302;2022-10-16T00:11:29;2.80;;;2.60;;
37931;SDS011;23758;42.640;23.302;2022-10-16T00:13:59;2.90;;;2.70;;
37931;SDS011;23758;42.640;23.302;2022-10-16T00:16:27;2.72;;;2.53;;
37931;SDS011;23758;42.640;23.302;2022-10-16T00:18:53;2.90;;;2.70;;
37931;SDS011;23758;42.640;23.302;2022-10-16T00:21:23;2.80;;;2.60;;
37931;SDS011;23758;42.640;23.302;2022-10-16T00:23:51;3.00;;;2.80;;
37931;SDS011;23758;42.640;23.302;2022-10-16T00:26:18;2.90;;;2.70;;
37931;SDS011;23758;42.640;23.302;2022-10-16T00:28:47;2.90;;;2.70;;
37931;SDS011;23758;42.640;23.302;2022-10-16T00:31:14;3.28;;;3.08;;
37931;SDS011;23758;42.640;23.302;2022-10-16T00:33:40;3.47;;;3.28;;
37931;SDS011;23758;42.640;23.302;2022-10-16T00:36:07;3.00;;;2.80;;
37931;SDS011;23758;42.640;23.302;2022-10-16T00:38:34;3.15;;;2.95;;
37931;SDS011;23758;42.640;23.302;2022-10-16T00:41:00;3.28;;;3.08;;
37931;SDS011;23758;42.640;23.302;2022-10-16T00:46:04;3.10;;;2.80;;
37931;SDS011;23758;42.640;23.302;2022-10-16T00:48:35;3.00;;;2.80;;
37931;SDS011;23758;42.640;23.302;2022-10-16T00:51:00;2.83;;;2.63;;
37931;SDS011;23758;42.640;23.302;2022-10-16T00:53:26;2.97;;;2.78;;
37931;SDS011;23758;42.640;23.302;2022-10-16T00:55:52;2.90;;;2.70;;
37931;SDS011;23758;42.640;23.302;2022-10-16T00:58:17;2.90;;;2.70;;
37931;SDS011;23758;42.640;23.302;2022-10-16T01:00:43;3.00;;;2.80;;
37931;SDS011;23758;42.640;23.302;2022-10-16T01:03:22;3.10;;;2.90;;
37931;SDS011;23758;42.640;23.302;2022-10-16T01:12:01;3.08;;;2.88;;
37931;SDS011;23758;42.640;23.302;2022-10-16T01:25:28;2.90;;;2.70;;
37931;SDS011;23758;42.640;23.302;2022-10-16T01:28:02;2.92;;;2.72;;
37931;SDS011;23758;42.640;23.302;2022-10-16T01:30:30;3.17;;;2.97;;
37931;SDS011;23758;42.640;23.302;2022-10-16T01:33:00;3.10;;;2.90;;
37931;SDS011;23758;42.640;23.302;2022-10-16T01:35:30;3.22;;;3.03;;
37931;SDS011;23758;42.640;23.302;2022-10-16T01:38:01;3.13;;;2.93;;
37931;SDS011;23758;42.640;23.302;2022-10-16T01:40:34;3.00;;;2.80;;
37931;SDS011;23758;42.640;23.302;2022-10-16T01:43:02;2.90;;;2.70;;
37931;SDS011;23758;42.640;23.302;2022-10-16T01:45:30;3.00;;;2.80;;
37931;SDS011;23758;42.640;23.302;2022-10-16T01:47:56;3.00;;;2.80;;
37931;SDS011;23758;42.640;23.302;2022-10-16T01:50:23;3.08;;;2.88;;
37931;SDS011;23758;42.640;23.302;2022-10-16T01:52:50;3.10;;;2.90;;
37931;SDS011;23758;42.640;23.302;2022-10-16T01:55:18;2.90;;;2.70;;
37931;SDS011;23758;42.640;23.302;2022-10-16T01:57:47;3.00;;;2.80;;
37931;SDS011;23758;42.640;23.302;2022-10-16T02:00:14;2.95;;;2.75;;
37931;SDS011;23758;42.640;23.302;2022-10-16T02:02:43;3.10;;;2.90;;
37931;SDS011;23758;42.640;23.302;2022-10-16T02:07:41;2.90;;;2.70;;
37931;SDS011;23758;42.640;23.302;2022-10-16T02:10:07;2.95;;;2.75;;
37931;SDS011;23758;42.640;23.302;2022-10-16T02:12:33;3.20;;;3.00;;
37931;SDS011;23758;42.640;23.302;2022-10-16T02:15:02;3.00;;;2.80;;
37931;SDS011;23758;42.640;23.302;2022-10-16T02:17:28;3.08;;;2.80;;
37931;SDS011;23758;42.640;23.302;2022-10-16T02:19:54;2.90;;;2.70;;
37931;SDS011;23758;42.640;23.302;2022-10-16T02:27:35;3.08;;;2.88;;
37931;SDS011;23758;42.640;23.302;2022-10-16T02:30:09;3.10;;;2.90;;
37931;SDS011;23758;42.640;23.302;2022-10-16T02:32:40;2.90;;;2.70;;
37931;SDS011;23758;42.640;23.302;2022-10-16T02:35:07;3.10;;;2.90;;
37931;SDS011;23758;42.640;23.302;2022-10-16T02:37:34;2.88;;;2.67;;
37931;SDS011;23758;42.640;23.302;2022-10-16T02:40:00;3.22;;;3.03;;
37931;SDS011;23758;42.640;23.302;2022-10-16T02:42:43;3.45;;;3.15;;
37931;SDS011;23758;42.640;23.302;2022-10-16T02:45:10;2.90;;;2.70;;
37931;SDS011;23758;42.640;23.302;2022-10-16T02:47:36;3.00;;;2.80;;
37931;SDS011;23758;42.640;23.302;2022-10-16T02:50:02;3.00;;;2.80;;
37931;SDS011;23758;42.640;23.302;2022-10-16T02:52:28;2.90;;;2.70;;
37931;SDS011;23758;42.640;23.302;2022-10-16T02:54:54;3.00;;;2.80;;
37931;SDS011;23758;42.640;23.302;2022-10-16T02:57:19;2.80;;;2.60;;
37931;SDS011;23758;42.640;23.302;2022-10-16T02:59:45;3.10;;;2.90;;
37931;SDS011;23758;42.640;23.302;2022-10-16T03:02:10;3.03;;;2.83;;
37931;SDS011;23758;42.640;23.302;2022-10-16T03:04:36;3.47;;;3.17;;
37931;SDS011;23758;42.640;23.302;2022-10-16T03:07:02;3.15;;;2.95;;
37931;SDS011;23758;42.640;23.302;2022-10-16T03:09:28;3.25;;;3.05;;
37931;SDS011;23758;42.640;23.302;2022-10-16T03:11:53;3.20;;;3.00;;
37931;SDS011;23758;42.640;23.302;2022-10-16T03:14:19;3.05;;;2.85;;
37931;SDS011;23758;42.640;23.302;2022-10-16T03:16:44;3.22;;;3.00;;
37931;SDS011;23758;42.640;23.302;2022-10-16T03:19:10;3.30;;;3.10;;
37931;SDS011;23758;42.640;23.302;2022-10-16T03:21:35;3.25;;;3.05;;
37931;SDS011;23758;42.640;23.302;2022-10-16T03:24:01;3.38;;;3.17;;
37931;SDS011;23758;42.640;23.302;2022-10-16T03:26:26;3.38;;;3.17;;
37931;SDS011;23758;42.640;23.302;2022-10-16T03:28:52;3.50;;;3.30;;
37931;SDS011;23758;42.640;23.302;2022-10-16T03:31:17;3.38;;;3.17;;
37931;SDS011;23758;42.640;23.302;2022-10-16T03:33:43;3.22;;;3.03;;
37931;SDS011;23758;42.640;23.302;2022-10-16T03:36:09;3.40;;;3.20;;
37931;SDS011;23758;42.640;23.302;2022-10-16T03:38:34;3.08;;;2.88;;
37931;SDS011;23758;42.640;23.302;2022-10-16T03:41:00;3.20;;;3.00;;
37931;SDS011;23758;42.640;23.302;2022-10-16T03:43:25;3.67;;;3.38;;
37931;SDS011;23758;42.640;23.302;2022-10-16T03:45:51;3.20;;;3.00;;
37931;SDS011;23758;42.640;23.302;2022-10-16T03:48:17;3.00;;;2.80;;
37931;SDS011;23758;42.640;23.302;2022-10-16T03:50:43;3.35;;;3.15;;
37931;SDS011;23758;42.640;23.302;2022-10-16T03:53:09;3.30;;;3.10;;
37931;SDS011;23758;42.640;23.302;2022-10-16T03:55:35;3.28;;;3.08;;
37931;SDS011;23758;42.640;23.302;2022-10-16T03:58:01;3.17;;;2.97;;
37931;SDS011;23758;42.640;23.302;2022-10-16T04:00:26;3.00;;;2.80;;
37931;SDS011;23758;42.640;23.302;2022-10-16T04:02:52;3.15;;;2.95;;
37931;SDS011;23758;42.640;23.302;2022-10-16T04:05:17;3.42;;;3.22;;
37931;SDS011;23758;42.640;23.302;2022-10-16T04:07:43;3.25;;;3.05;;
37931;SDS011;23758;42.640;23.302;2022-10-16T04:10:08;3.22;;;3.03;;
37931;SDS011;23758;42.640;23.302;2022-10-16T04:12:34;3.30;;;3.10;;
37931;SDS011;23758;42.640;23.302;2022-10-16T04:14:59;3.53;;;3.28;;
37931;SDS011;23758;42.640;23.302;2022-10-16T04:17:25;3.20;;;3.00;;
37931;SDS011;23758;42.640;23.302;2022-10-16T04:19:50;3.28;;;3.08;;
37931;SDS011;23758;42.640;23.302;2022-10-16T04:22:16;3.10;;;2.90;;
37931;SDS011;23758;42.640;23.302;2022-10-16T04:24:41;3.47;;;3.25;;
37931;SDS011;23758;42.640;23.302;2022-10-16T04:27:07;3.97;;;3.67;;
37931;SDS011;23758;42.640;23.302;2022-10-16T04:29:32;3.90;;;3.60;;
37931;SDS011;23758;42.640;23.302;2022-10-16T04:31:58;3.42;;;3.22;;
37931;SDS011;23758;42.640;23.302;2022-10-16T04:34:23;3.25;;;3.05;;
37931;SDS011;23758;42.640;23.302;2022-10-16T04:36:49;3.95;;;3.65;;
37931;SDS011;23758;42.640;23.302;2022-10-16T04:39:15;3.20;;;3.00;;
37931;SDS011;23758;42.640;23.302;2022-10-16T04:41:41;3.22;;;3.03;;
37931;SDS011;23758;42.640;23.302;2022-10-16T04:44:06;3.20;;;3.00;;
37931;SDS011;23758;42.640;23.302;2022-10-16T04:46:32;3.45;;;3.25;;
37931;SDS011;23758;42.640;23.302;2022-10-16T04:48:57;3.47;;;3.28;;
37931;SDS011;23758;42.640;23.302;2022-10-16T04:51:23;3.28;;;3.08;;
37931;SDS011;23758;42.640;23.302;2022-10-16T04:53:50;3.42;;;3.22;;
37931;SDS011;23758;42.640;23.302;2022-10-16T04:56:16;3.30;;;3.10;;
37931;SDS011;23758;42.640;23.302;2022-10-16T04:58:41;3.97;;;3.67;;
37931;SDS011;23758;42.640;23.302;2022-10-16T05:01:07;3.47;;;3.28;;
37931;SDS011;23758;42.640;23.302;2022-10-16T05:03:33;3.20;;;3.00;;
37931;SDS011;23758;42.640;23.302;2022-10-16T05:05:59;3.35;;;3.15;;
37931;SDS011;23758;42.640;23.302;2022-10-16T05:08:24;3.20;;;3.00;;
37931;SDS011;23758;42.640;23.302;2022-10-16T05:10:50;3.25;;;3.05;;
37931;SDS011;23758;42.640;23.302;2022-10-16T05:13:15;3.58;;;3.33;;
37931;SDS011;23758;42.640;23.302;2022-10-16T05:15:41;3.63;;;3.33;;
37931;SDS011;23758;42.640;23.302;2022-10-16T05:18:07;3.50;;;3.30;;
37931;SDS011;23758;42.640;23.302;2022-10-16T05:20:33;3.50;;;3.30;;
37931;SDS011;23758;42.640;23.302;2022-10-16T05:22:59;3.53;;;3.33;;
37931;SDS011;23758;42.640;23.302;2022-10-16T05:25:25;4.13;;;3.83;;
37931;SDS011;23758;42.640;23.302;2022-10-16T05:27:50;3.55;;;3.33;;
37931;SDS011;23758;42.640;23.302;2022-10-16T05:30:17;4.00;;;3.60;;
37931;SDS011;23758;42.640;23.302;2022-10-16T05:32:46;3.28;;;3.08;;
37931;SDS011;23758;42.640;23.302;2022-10-16T05:35:13;3.15;;;2.95;;
37931;SDS011;23758;42.640;23.302;2022-10-16T05:37:38;3.10;;;2.90;;
37931;SDS011;23758;42.640;23.302;2022-10-16T05:40:04;3.67;;;3.47;;
37931;SDS011;23758;42.640;23.302;2022-10-16T05:42:30;3.03;;;2.83;;
37931;SDS011;23758;42.640;23.302;2022-10-16T05:44:55;3.33;;;3.10;;
37931;SDS011;23758;42.640;23.302;2022-10-16T05:47:21;2.90;;;2.70;;
37931;SDS011;23758;42.640;23.302;2022-10-16T05:49:46;3.10;;;2.90;;
37931;SDS011;23758;42.640;23.302;2022-10-16T05:52:12;3.03;;;2.83;;
37931;SDS011;23758;42.640;23.302;2022-10-16T05:54:37;3.20;;;3.00;;
37931;SDS011;23758;42.640;23.302;2022-10-16T05:57:03;3.45;;;3.20;;
37931;SDS011;23758;42.640;23.302;2022-10-16T05:59:30;3.70;;;3.40;;
37931;SDS011;23758;42.640;23.302;2022-10-16T06:01:56;3.08;;;2.88;;
37931;SDS011;23758;42.640;23.302;2022-10-16T06:04:21;3.10;;;2.90;;
37931;SDS011;23758;42.640;23.302;2022-10-16T06:06:47;3.00;;;2.80;;
37931;SDS011;23758;42.640;23.302;2022-10-16T06:09:12;3.10;;;2.90;;
37931;SDS011;23758;42.640;23.302;2022-10-16T06:11:38;3.05;;;2.85;;
37931;SDS011;23758;42.640;23.302;2022-10-16T06:14:03;3.40;;;3.20;;
37931;SDS011;23758;42.640;23.302;2022-10-16T06:16:32;3.47;;;3.20;;
37931;SDS011;23758;42.640;23.302;2022-10-16T06:18:59;3.25;;;3.05;;
37931;SDS011;23758;42.640;23.302;2022-10-16T06:21:26;3.55;;;3.35;;
37931;SDS011;23758;42.640;23.302;2022-10-16T06:23:53;3.50;;;3.30;;
37931;SDS011;23758;42.640;23.302;2022-10-16T06:26:20;3.47;;;3.28;;
37931;SDS011;23758;42.640;23.302;2022-10-16T06:28:47;3.20;;;3.00;;
37931;SDS011;23758;42.640;23.302;2022-10-16T06:31:13;3.85;;;3.55;;
37931;SDS011;23758;42.640;23.302;2022-10-16T06:33:39;3.22;;;3.03;;
37931;SDS011;23758;42.640;23.302;2022-10-16T06:36:06;3.17;;;2.97;;
37931;SDS011;23758;42.640;23.302;2022-10-16T06:38:36;3.95;;;3.30;;
37931;SDS011;23758;42.640;23.302;2022-10-16T06:41:03;3.20;;;3.00;;
37931;SDS011;23758;42.640;23.302;2022-10-16T06:43:29;3.75;;;3.45;;
37931;SDS011;23758;42.640;23.302;2022-10-16T06:46:00;3.20;;;3.00;;
37931;SDS011;23758;42.640;23.302;2022-10-16T06:48:26;3.80;;;3.50;;
37931;SDS011;23758;42.640;23.302;2022-10-16T06:53:21;2.97;;;2.78;;
37931;SDS011;23758;42.640;23.302;2022-10-16T06:55:46;3.13;;;2.92;;
37931;SDS011;23758;42.640;23.302;2022-10-16T06:58:12;3.10;;;2.90;;
37931;SDS011;23758;42.640;23.302;2022-10-16T07:00:37;3.40;;;3.10;;
37931;SDS011;23758;42.640;23.302;2022-10-16T07:03:03;2.72;;;2.53;;
37931;SDS011;23758;42.640;23.302;2022-10-16T07:05:28;2.63;;;2.42;;
37931;SDS011;23758;42.640;23.302;2022-10-16T07:07:54;2.67;;;2.47;;
37931;SDS011;23758;42.640;23.302;2022-10-16T07:10:19;2.38;;;2.28;;
37931;SDS011;23758;42.640;23.302;2022-10-16T07:12:45;2.65;;;2.45;;
37931;SDS011;23758;42.640;23.302;2022-10-16T07:15:10;2.92;;;2.72;;
37931;SDS011;23758;42.640;23.302;2022-10-16T07:17:37;2.40;;;2.30;;
37931;SDS011;23758;42.640;23.302;2022-10-16T07:20:03;2.72;;;2.53;;
37931;SDS011;23758;42.640;23.302;2022-10-16T07:22:28;2.60;;;2.40;;
37931;SDS011;23758;42.640;23.302;2022-10-16T07:24:54;2.70;;;2.50;;
37931;SDS011;23758;42.640;23.302;2022-10-16T07:27:19;2.30;;;2.20;;
37931;SDS011;23758;42.640;23.302;2022-10-16T07:29:48;2.67;;;2.47;;
37931;SDS011;23758;42.640;23.302;2022-10-16T07:32:14;2.47;;;2.35;;
37931;SDS011;23758;42.640;23.302;2022-10-16T07:34:39;2.50;;;2.40;;
37931;SDS011;23758;42.640;23.302;2022-10-16T07:37:05;2.33;;;2.22;;
37931;SDS011;23758;42.640;23.302;2022-10-16T07:39:30;2.42;;;2.30;;
37931;SDS011;23758;42.640;23.302;2022-10-16T07:41:56;2.63;;;2.42;;
37931;SDS011;23758;42.640;23.302;2022-10-16T07:44:21;3.38;;;3.17;;
37931;SDS011;23758;42.640;23.302;2022-10-16T07:46:47;2.40;;;2.30;;
37931;SDS011;23758;42.640;23.302;2022-10-16T07:49:12;2.65;;;2.45;;
37931;SDS011;23758;42.640;23.302;2022-10-16T07:51:38;2.60;;;2.40;;
37931;SDS011;23758;42.640;23.302;2022-10-16T07:54:04;2.70;;;2.50;;
37931;SDS011;23758;42.640;23.302;2022-10-16T07:56:30;2.70;;;2.50;;
37931;SDS011;23758;42.640;23.302;2022-10-16T07:58:56;2.55;;;2.40;;
37931;SDS011;23758;42.640;23.302;2022-10-16T08:01:22;2.80;;;2.60;;
37931;SDS011;23758;42.640;23.302;2022-10-16T08:03:48;3.53;;;3.22;;
37931;SDS011;23758;42.640;23.302;2022-10-16T08:06:15;3.22;;;2.95;;
37931;SDS011;23758;42.640;23.302;2022-10-16T08:08:40;11.13;;;2.78;;
37931;SDS011;23758;42.640;23.302;2022-10-16T08:11:06;2.92;;;2.60;;
37931;SDS011;23758;42.640;23.302;2022-10-16T08:13:32;2.55;;;2.38;;
37931;SDS011;23758;42.640;23.302;2022-10-16T08:15:57;2.75;;;2.55;;
37931;SDS011;23758;42.640;23.302;2022-10-16T08:18:23;3.17;;;2.88;;
37931;SDS011;23758;42.640;23.302;2022-10-16T08:20:54;2.70;;;2.50;;
37931;SDS011;23758;42.640;23.302;2022-10-16T08:23:20;2.80;;;2.60;;
37931;SDS011;23758;42.640;23.302;2022-10-16T08:25:46;2.33;;;2.22;;
37931;SDS011;23758;42.640;23.302;2022-10-16T08:28:11;2.63;;;2.42;;
37931;SDS011;23758;42.640;23.302;2022-10-16T08:30:37;2.67;;;2.47;;
37931;SDS011;23758;42.640;23.302;2022-10-16T08:33:03;2.50;;;2.35;;
37931;SDS011;23758;42.640;23.302;2022-10-16T08:35:29;2.40;;;2.30;;
37931;SDS011;23758;42.640;23.302;2022-10-16T08:37:54;2.40;;;2.30;;
37931;SDS011;23758;42.640;23.302;2022-10-16T08:40:21;3.28;;;3.00;;
37931;SDS011;23758;42.640;23.302;2022-10-16T08:42:53;2.72;;;2.53;;
37931;SDS011;23758;42.640;23.302;2022-10-16T08:50:38;2.92;;;2.72;;
37931;SDS011;23758;42.640;23.302;2022-10-16T08:53:05;2.50;;;2.40;;
37931;SDS011;23758;42.640;23.302;2022-10-16T08:55:38;2.30;;;2.20;;
37931;SDS011;23758;42.640;23.302;2022-10-16T08:58:14;2.90;;;2.70;;
37931;SDS011;23758;42.640;23.302;2022-10-16T09:00:42;2.30;;;2.20;;
37931;SDS011;23758;42.640;23.302;2022-10-16T09:06:06;2.20;;;2.10;;
37931;SDS011;23758;42.640;23.302;2022-10-16T09:17:10;2.50;;;2.30;;
37931;SDS011;23758;42.640;23.302;2022-10-16T09:20:12;2.10;;;2.00;;
37931;SDS011;23758;42.640;23.302;2022-10-16T09:22:38;2.60;;;2.40;;
37931;SDS011;23758;42.640;23.302;2022-10-16T09:25:11;2.25;;;2.15;;
37931;SDS011;23758;42.640;23.302;2022-10-16T09:27:42;2.28;;;2.17;;
37931;SDS011;23758;42.640;23.302;2022-10-16T09:30:11;2.58;;;2.38;;
37931;SDS011;23758;42.640;23.302;2022-10-16T09:32:47;2.08;;;1.98;;
37931;SDS011;23758;42.640;23.302;2022-10-16T09:35:16;2.20;;;2.10;;
37931;SDS011;23758;42.640;23.302;2022-10-16T09:37:44;2.17;;;2.08;;
37931;SDS011;23758;42.640;23.302;2022-10-16T09:40:24;2.45;;;2.33;;
37931;SDS011;23758;42.640;23.302;2022-10-16T09:42:52;2.17;;;2.08;;
37931;SDS011;23758;42.640;23.302;2022-10-16T09:45:40;2.25;;;2.15;;
37931;SDS011;23758;42.640;23.302;2022-10-16T09:48:10;2.10;;;2.00;;
37931;SDS011;23758;42.640;23.302;2022-10-16T09:50:36;2.10;;;2.00;;
37931;SDS011;23758;42.640;23.302;2022-10-16T09:53:13;2.20;;;2.10;;
37931;SDS011;23758;42.640;23.302;2022-10-16T09:55:49;2.42;;;2.25;;
37931;SDS011;23758;42.640;23.302;2022-10-16T09:58:15;1.90;;;1.80;;
37931;SDS011;23758;42.640;23.302;2022-10-16T10:00:41;2.20;;;2.10;;
37931;SDS011;23758;42.640;23.302;2022-10-16T10:03:15;2.70;;;2.50;;
37931;SDS011;23758;42.640;23.302;2022-10-16T10:06:04;2.00;;;1.90;;
37931;SDS011;23758;42.640;23.302;2022-10-16T10:08:32;2.40;;;2.22;;
37931;SDS011;23758;42.640;23.302;2022-10-16T10:10:58;2.15;;;2.05;;
37931;SDS011;23758;42.640;23.302;2022-10-16T10:13:24;2.10;;;2.00;;
37931;SDS011;23758;42.640;23.302;2022-10-16T10:15:50;2.03;;;1.92;;
37931;SDS011;23758;42.640;23.302;2022-10-16T10:18:19;2.10;;;2.00;;
37931;SDS011;23758;42.640;23.302;2022-10-16T10:20:57;2.00;;;1.90;;
37931;SDS011;23758;42.640;23.302;2022-10-16T10:23:26;2.00;;;1.90;;
37931;SDS011;23758;42.640;23.302;2022-10-16T10:26:15;2.00;;;1.90;;
37931;SDS011;23758;42.640;23.302;2022-10-16T10:37:03;2.00;;;1.90;;
37931;SDS011;23758;42.640;23.302;2022-10-16T10:39:46;2.13;;;2.03;;
37931;SDS011;23758;42.640;23.302;2022-10-16T10:42:38;2.08;;;1.98;;
37931;SDS011;23758;42.640;23.302;2022-10-16T11:02:21;1.80;;;1.70;;
37931;SDS011;23758;42.640;23.302;2022-10-16T11:07:28;2.20;;;2.10;;
37931;SDS011;23758;42.640;23.302;2022-10-16T11:09:57;2.15;;;2.05;;
37931;SDS011;23758;42.640;23.302;2022-10-16T11:12:29;2.33;;;2.13;;
37931;SDS011;23758;42.640;23.302;2022-10-16T11:15:00;2.63;;;2.42;;
37931;SDS011;23758;42.640;23.302;2022-10-16T11:17:38;2.10;;;2.00;;
37931;SDS011;23758;42.640;23.302;2022-10-16T11:20:32;1.83;;;1.73;;
37931;SDS011;23758;42.640;23.302;2022-10-16T11:23:21;2.35;;;2.15;;
37931;SDS011;23758;42.640;23.302;2022-10-16T11:26:01;2.13;;;2.03;;
37931;SDS011;23758;42.640;23.302;2022-10-16T11:28:33;2.47;;;2.28;;
37931;SDS011;23758;42.640;23.302;2022-10-16T11:31:05;2.00;;;1.90;;
37931;SDS011;23758;42.640;23.302;2022-10-16T11:36:36;1.90;;;1.80;;
37931;SDS011;23758;42.640;23.302;2022-10-16T11:39:19;2.15;;;2.05;;
37931;SDS011;23758;42.640;23.302;2022-10-16T11:41:50;2.05;;;1.95;;
37931;SDS011;23758;42.640;23.302;2022-10-16T11:44:32;1.90;;;1.80;;
37931;SDS011;23758;42.640;23.302;2022-10-16T11:55:49;1.93;;;1.83;;
37931;SDS011;23758;42.640;23.302;2022-10-16T12:00:42;2.00;;;1.90;;
37931;SDS011;23758;42.640;23.302;2022-10-16T12:03:22;2.75;;;2.55;;
37931;SDS011;23758;42.640;23.302;2022-10-16T12:06:02;1.90;;;1.80;;
37931;SDS011;23758;42.640;23.302;2022-10-16T12:08:36;2.83;;;2.50;;
37931;SDS011;23758;42.640;23.302;2022-10-16T12:11:09;1.90;;;1.80;;
37931;SDS011;23758;42.640;23.302;2022-10-16T12:13:46;2.00;;;1.90;;
37931;SDS011;23758;42.640;23.302;2022-10-16T12:18:45;1.90;;;1.80;;
37931;SDS011;23758;42.640;23.302;2022-10-16T12:21:11;2.47;;;1.98;;
37931;SDS011;23758;42.640;23.302;2022-10-16T12:23:56;2.10;;;2.00;;
37931;SDS011;23758;42.640;23.302;2022-10-16T12:28:50;1.90;;;1.80;;
37931;SDS011;23758;42.640;23.302;2022-10-16T12:31:16;1.95;;;1.85;;
37931;SDS011;23758;42.640;23.302;2022-10-16T12:33:54;2.00;;;1.90;;
37931;SDS011;23758;42.640;23.302;2022-10-16T12:36:29;2.22;;;2.10;;
37931;SDS011;23758;42.640;23.302;2022-10-16T12:38:58;1.88;;;1.77;;
37931;SDS011;23758;42.640;23.302;2022-10-16T12:43:57;2.20;;;2.10;;
37931;SDS011;23758;42.640;23.302;2022-10-16T12:51:38;1.92;;;1.83;;
37931;SDS011;23758;42.640;23.302;2022-10-16T12:54:14;2.50;;;2.30;;
37931;SDS011;23758;42.640;23.302;2022-10-16T12:59:53;1.90;;;1.80;;
37931;SDS011;23758;42.640;23.302;2022-10-16T13:10:20;1.83;;;1.73;;
37931;SDS011;23758;42.640;23.302;2022-10-16T13:12:57;1.90;;;1.80;;
37931;SDS011;23758;42.640;23.302;2022-10-16T13:29:44;1.90;;;1.80;;
37931;SDS011;23758;42.640;23.302;2022-10-16T13:32:11;2.00;;;1.90;;
37931;SDS011;23758;42.640;23.302;2022-10-16T13:34:46;1.90;;;1.80;;
37931;SDS011;23758;42.640;23.302;2022-10-16T13:37:20;2.00;;;1.90;;
37931;SDS011;23758;42.640;23.302;2022-10-16T13:39:47;1.80;;;1.70;;
37931;SDS011;23758;42.640;23.302;2022-10-16T13:42:21;1.90;;;1.80;;
37931;SDS011;23758;42.640;23.302;2022-10-16T13:44:52;1.88;;;1.77;;
37931;SDS011;23758;42.640;23.302;2022-10-16T13:47:20;1.80;;;1.70;;
37931;SDS011;23758;42.640;23.302;2022-10-16T13:50:03;1.80;;;1.70;;
37931;SDS011;23758;42.640;23.302;2022-10-16T13:52:30;1.90;;;1.80;;
37931;SDS011;23758;42.640;23.302;2022-10-16T13:54:56;2.03;;;1.92;;
37931;SDS011;23758;42.640;23.302;2022-10-16T13:57:22;1.83;;;1.73;;
37931;SDS011;23758;42.640;23.302;2022-10-16T13:59:49;1.90;;;1.80;;
37931;SDS011;23758;42.640;23.302;2022-10-16T14:04:48;2.00;;;1.90;;
37931;SDS011;23758;42.640;23.302;2022-10-16T14:07:14;1.83;;;1.73;;
37931;SDS011;23758;42.640;23.302;2022-10-16T14:09:47;2.00;;;1.90;;
37931;SDS011;23758;42.640;23.302;2022-10-16T14:12:14;1.95;;;1.85;;
37931;SDS011;23758;42.640;23.302;2022-10-16T14:14:40;1.90;;;1.80;;
37931;SDS011;23758;42.640;23.302;2022-10-16T14:17:14;2.05;;;1.95;;
37931;SDS011;23758;42.640;23.302;2022-10-16T14:19:40;2.00;;;1.90;;
37931;SDS011;23758;42.640;23.302;2022-10-16T14:22:17;1.98;;;1.88;;
37931;SDS011;23758;42.640;23.302;2022-10-16T14:24:46;1.90;;;1.80;;
37931;SDS011;23758;42.640;23.302;2022-10-16T14:30:17;2.60;;;2.40;;
37931;SDS011;23758;42.640;23.302;2022-10-16T14:33:01;2.05;;;1.95;;
37931;SDS011;23758;42.640;23.302;2022-10-16T14:35:32;1.90;;;1.80;;
37931;SDS011;23758;42.640;23.302;2022-10-16T14:38:02;2.38;;;2.20;;
37931;SDS011;23758;42.640;23.302;2022-10-16T14:40:33;2.10;;;2.00;;
37931;SDS011;23758;42.640;23.302;2022-10-16T14:43:00;2.10;;;2.00;;
37931;SDS011;23758;42.640;23.302;2022-10-16T14:45:30;1.98;;;1.88;;
37931;SDS011;23758;42.640;23.302;2022-10-16T14:47:58;2.00;;;1.90;;
37931;SDS011;23758;42.640;23.302;2022-10-16T14:50:25;2.00;;;1.90;;
37931;SDS011;23758;42.640;23.302;2022-10-16T14:52:51;2.28;;;2.17;;
37931;SDS011;23758;42.640;23.302;2022-10-16T14:55:16;2.17;;;2.08;;
37931;SDS011;23758;42.640;23.302;2022-10-16T14:57:43;2.33;;;2.22;;
37931;SDS011;23758;42.640;23.302;2022-10-16T15:00:42;2.10;;;2.00;;
37931;SDS011;23758;42.640;23.302;2022-10-16T15:03:00;2.30;;;2.20;;
37931;SDS011;23758;42.640;23.302;2022-10-16T15:05:27;2.38;;;2.22;;
37931;SDS011;23758;42.640;23.302;2022-10-16T15:07:53;2.20;;;2.10;;
37931;SDS011;23758;42.640;23.302;2022-10-16T15:10:20;2.72;;;2.53;;
37931;SDS011;23758;42.640;23.302;2022-10-16T15:12:47;2.40;;;2.25;;
37931;SDS011;23758;42.640;23.302;2022-10-16T15:18:00;2.65;;;2.45;;
37931;SDS011;23758;42.640;23.302;2022-10-16T15:20:28;2.22;;;2.13;;
37931;SDS011;23758;42.640;23.302;2022-10-16T15:22:55;2.22;;;2.13;;
37931;SDS011;23758;42.640;23.302;2022-10-16T15:28:06;2.28;;;2.17;;
37931;SDS011;23758;42.640;23.302;2022-10-16T15:30:33;2.60;;;2.40;;
37931;SDS011;23758;42.640;23.302;2022-10-16T15:32:58;2.50;;;2.30;;
37931;SDS011;23758;42.640;23.302;2022-10-16T15:35:24;2.10;;;2.00;;
37931;SDS011;23758;42.640;23.302;2022-10-16T15:37:49;2.85;;;2.65;;
37931;SDS011;23758;42.640;23.302;2022-10-16T15:40:16;2.35;;;2.25;;
37931;SDS011;23758;42.640;23.302;2022-10-16T15:42:42;2.38;;;2.28;;
37931;SDS011;23758;42.640;23.302;2022-10-16T15:45:08;2.30;;;2.20;;
37931;SDS011;23758;42.640;23.302;2022-10-16T15:47:34;2.40;;;2.30;;
37931;SDS011;23758;42.640;23.302;2022-10-16T15:50:00;2.80;;;2.60;;
37931;SDS011;23758;42.640;23.302;2022-10-16T15:52:25;2.30;;;2.20;;
37931;SDS011;23758;42.640;23.302;2022-10-16T15:54:51;2.25;;;2.15;;
37931;SDS011;23758;42.640;23.302;2022-10-16T15:57:17;2.30;;;2.20;;
37931;SDS011;23758;42.640;23.302;2022-10-16T15:59:42;2.83;;;2.63;;
37931;SDS011;23758;42.640;23.302;2022-10-16T16:02:08;2.30;;;2.20;;
37931;SDS011;23758;42.640;23.302;2022-10-16T16:04:34;2.58;;;2.38;;
37931;SDS011;23758;42.640;23.302;2022-10-16T16:07:00;6.53;;;2.45;;
37931;SDS011;23758;42.640;23.302;2022-10-16T16:09:28;2.20;;;2.10;;
37931;SDS011;23758;42.640;23.302;2022-10-16T16:11:54;2.70;;;2.50;;
37931;SDS011;23758;42.640;23.302;2022-10-16T16:14:20;2.40;;;2.28;;
37931;SDS011;23758;42.640;23.302;2022-10-16T16:16:45;2.40;;;2.30;;
37931;SDS011;23758;42.640;23.302;2022-10-16T16:19:11;3.22;;;2.97;;
37931;SDS011;23758;42.640;23.302;2022-10-16T16:21:37;2.30;;;2.20;;
37931;SDS011;23758;42.640;23.302;2022-10-16T16:24:03;2.33;;;2.22;;
37931;SDS011;23758;42.640;23.302;2022-10-16T16:26:33;2.90;;;2.53;;
37931;SDS011;23758;42.640;23.302;2022-10-16T16:29:01;2.58;;;2.38;;
37931;SDS011;23758;42.640;23.302;2022-10-16T16:31:29;2.30;;;2.20;;
37931;SDS011;23758;42.640;23.302;2022-10-16T16:33:56;2.30;;;2.20;;
37931;SDS011;23758;42.640;23.302;2022-10-16T16:36:22;2.40;;;2.30;;
37931;SDS011;23758;42.640;23.302;2022-10-16T16:38:48;2.60;;;2.40;;
37931;SDS011;23758;42.640;23.302;2022-10-16T16:41:21;2.88;;;2.67;;
37931;SDS011;23758;42.640;23.302;2022-10-16T16:43:48;2.40;;;2.30;;
37931;SDS011;23758;42.640;23.302;2022-10-16T16:46:16;2.85;;;2.67;;
37931;SDS011;23758;42.640;23.302;2022-10-16T16:48:42;2.60;;;2.42;;
37931;SDS011;23758;42.640;23.302;2022-10-16T16:51:09;2.75;;;2.55;;
37931;SDS011;23758;42.640;23.302;2022-10-16T16:53:45;3.03;;;2.78;;
37931;SDS011;23758;42.640;23.302;2022-10-16T16:56:12;2.40;;;2.30;;
37931;SDS011;23758;42.640;23.302;2022-10-16T16:58:38;2.58;;;2.40;;